Time;durP1;ratioP1;P1;durP2;ratioP2;P2;SDS_P1;SDS_P2;PMS_P1;PMS_P2;Temp;Humidity;BMP_temperature;BMP_pressure;BME280_temperature;BME280_humidity;BME280_pressure;Samples;Min_cycle;Max_cycle;Signal;HPM_P1;HPM_P2
2023/12/10 00:02:30;;;;;;;53.92;35.92;;;8.60;97.80;;;;;;5050458;28;20052;-69
2023/12/10 00:05:35;;;;;;;62.28;37.63;;;;;;;;;;5050276;28;20048;-69
2023/12/10 00:08:39;;;;;;;56.83;38.17;;;9.20;96.50;;;;;;5050468;28;20067;-69
2023/12/10 00:11:43;;;;;;;60.70;39.08;;;9.30;96.60;;;;;;5050708;28;20060;-68
2023/12/10 00:14:52;;;;;;;68.30;40.53;;;9.10;97.20;;;;;;5050461;28;20072;-68
2023/12/10 00:17:56;;;;;;;63.58;39.42;;;8.80;97.50;;;;;;5073024;28;20055;-68
2023/12/10 00:21:00;;;;;;;64.32;38.85;;;9.10;97.50;;;;;;5094728;28;20043;-68
2023/12/10 00:24:05;;;;;;;63.85;41.08;;;9.30;96.60;;;;;;5094778;28;20043;-68
2023/12/10 00:27:09;;;;;;;64.53;39.50;;;9.00;97.40;;;;;;5094639;28;20049;-69
2023/12/10 00:30:14;;;;;;;58.88;39.22;;;8.70;97.60;;;;;;5094373;28;20051;-69
2023/12/10 00:33:19;;;;;;;65.35;40.00;;;9.40;96.60;;;;;;5081987;28;20502;-69
2023/12/10 00:36:23;;;;;;;58.50;38.83;;;9.90;96.80;;;;;;5094691;28;20051;-69
2023/12/10 00:39:28;;;;;;;62.97;39.85;;;9.10;97.60;;;;;;5094535;28;20514;-70
2023/12/10 00:42:33;;;;;;;63.88;39.83;;;9.00;97.60;;;;;;5094133;28;20039;-70
2023/12/10 00:45:37;;;;;;;63.92;40.30;;;9.40;96.70;;;;;;5093851;28;20039;-69
2023/12/10 00:48:41;;;;;;;66.88;39.80;;;9.10;97.90;;;;;;5081730;28;20051;-69
2023/12/10 00:51:45;;;;;;;70.43;40.55;;;9.10;98.00;;;;;;5094054;28;20039;-68
2023/12/10 00:54:49;;;;;;;63.83;40.10;;;9.30;97.10;;;;;;5093826;28;20051;-69
2023/12/10 00:57:53;;;;;;;64.50;41.10;;;8.10;97.70;;;;;;5094155;28;20043;-69
2023/12/10 01:00:57;;;;;;;66.68;40.63;;;9.40;97.10;;;;;;5093899;28;20043;-69
2023/12/10 01:04:01;;;;;;;68.20;39.85;;;9.40;97.20;;;;;;5093690;28;20043;-69
2023/12/10 01:07:07;;;;;;;63.90;38.65;;;9.20;98.10;;;;;;5093789;28;20043;-69
2023/12/10 01:10:11;;;;;;;69.22;40.45;;;9.30;98.00;;;;;;5093570;28;20236;-69
2023/12/10 01:13:15;;;;;;;64.40;41.42;;;9.20;98.40;;;;;;5093611;28;20043;-69
2023/12/10 01:16:19;;;;;;;62.15;40.75;;;9.30;98.50;;;;;;5093292;28;20047;-69
2023/12/10 01:19:23;;;;;;;70.90;44.00;;;9.20;98.90;;;;;;5093525;28;20051;-69
2023/12/10 01:22:28;;;;;;;64.57;43.20;;;8.90;99.10;;;;;;5093635;28;20039;-69
2023/12/10 01:25:34;;;;;;;69.70;43.92;;;9.20;98.70;;;;;;5081072;28;20400;-69
2023/12/10 01:28:39;;;;;;;68.82;44.70;;;9.30;99.50;;;;;;5093437;28;20035;-70
2023/12/10 01:31:43;;;;;;;72.40;45.20;;;9.30;99.50;;;;;;5092806;28;20043;-69
2023/12/10 01:34:47;;;;;;;74.43;45.60;;;9.20;99.50;;;;;;5092508;28;20055;-69
2023/12/10 01:37:51;;;;;;;73.82;48.47;;;9.40;99.50;;;;;;5092909;28;20192;-69
2023/12/10 01:40:55;;;;;;;77.65;49.28;;;9.10;99.60;;;;;;5080461;28;20043;-69
2023/12/10 01:43:59;;;;;;;75.72;49.13;;;9.20;99.60;;;;;;5093026;28;20043;-69
2023/12/10 01:47:04;;;;;;;76.30;49.25;;;9.20;99.90;;;;;;5092502;28;20039;-69
2023/12/10 01:50:12;;;;;;;73.07;48.17;;;9.30;99.80;;;;;;5092910;28;20207;-69
2023/12/10 01:53:16;;;;;;;76.20;46.83;;;9.20;99.90;;;;;;5092516;28;20051;-69
2023/12/10 01:56:21;;;;;;;72.68;46.83;;;9.60;99.00;;;;;;5092604;28;20440;-69
2023/12/10 01:59:25;;;;;;;76.10;46.38;;;9.30;99.90;;;;;;5092583;28;20047;-69
2023/12/10 02:02:29;;;;;;;67.82;45.33;;;8.60;99.90;;;;;;5092252;28;20047;-69
2023/12/10 02:05:33;;;;;;;75.15;47.42;;;9.90;99.40;;;;;;5092092;28;20038;-69
2023/12/10 02:08:37;;;;;;;75.47;47.13;;;7.90;99.90;;;;;;5092478;28;20047;-69
2023/12/10 02:11:41;;;;;;;71.15;48.20;;;9.60;99.60;;;;;;5092395;28;20637;-69
2023/12/10 02:14:45;;;;;;;70.20;45.33;;;8.20;99.90;;;;;;5092017;28;20067;-69
2023/12/10 02:17:49;;;;;;;72.13;47.30;;;9.80;99.90;;;;;;5091943;28;20067;-69
2023/12/10 02:20:56;;;;;;;72.95;46.97;;;8.20;99.90;;;;;;5091979;28;20082;-69
2023/12/10 02:24:05;;;;;;;71.03;45.90;;;9.70;99.90;;;;;;5091919;28;20047;-70
2023/12/10 02:27:10;;;;;;;61.70;42.38;;;9.60;99.90;;;;;;5091867;28;20039;-69
2023/12/10 02:30:14;;;;;;;59.17;39.72;;;9.60;99.90;;;;;;5091970;28;20050;-70
2023/12/10 02:33:21;;;;;;;55.13;38.53;;;9.90;99.90;;;;;;5091562;28;20047;-69
2023/12/10 02:36:25;;;;;;;54.55;39.60;;;;;;;;;;5091521;28;20499;-69
2023/12/10 02:39:30;;;;;;;55.97;39.72;;;;;;;;;;5091762;28;20584;-69
2023/12/10 02:42:34;;;;;;;57.53;38.60;;;;;;;;;;5091549;28;20051;-69
2023/12/10 02:45:38;;;;;;;47.65;29.33;;;9.60;99.90;;;;;;5091295;28;20440;-69
2023/12/10 02:48:42;;;;;;;38.47;25.63;;;9.50;99.90;;;;;;5091556;28;20043;-69
2023/12/10 02:51:46;;;;;;;29.77;21.83;;;9.90;99.90;;;;;;5091455;28;20051;-69
2023/12/10 02:54:50;;;;;;;24.70;17.08;;;9.90;99.90;;;;;;5091088;28;20047;-69
2023/12/10 02:57:54;;;;;;;22.45;15.52;;;8.70;99.90;;;;;;5091307;28;20094;-69
2023/12/10 03:00:58;;;;;;;21.27;14.43;;;9.80;99.90;;;;;;5091489;28;20392;-69
2023/12/10 03:04:02;;;;;;;19.13;13.05;;;8.30;99.90;;;;;;5091421;28;20039;-68
2023/12/10 03:07:06;;;;;;;19.45;11.40;;;9.80;99.90;;;;;;5091405;28;20043;-69
2023/12/10 03:10:10;;;;;;;17.85;10.98;;;8.80;99.90;;;;;;5078873;28;20043;-69
2023/12/10 03:13:14;;;;;;;17.25;11.30;;;;;;;;;;5091231;28;20051;-69
2023/12/10 03:16:18;;;;;;;16.35;11.27;;;10.10;99.90;;;;;;5090698;28;20051;-69
2023/12/10 03:19:23;;;;;;;20.20;10.95;;;10.20;99.90;;;;;;5090943;28;20050;-69
2023/12/10 03:22:28;;;;;;;19.33;12.02;;;;;;;;;;5091012;28;20058;-69
2023/12/10 03:25:32;;;;;;;16.33;11.52;;;8.70;99.90;;;;;;5090816;28;20455;-69
2023/12/10 03:28:35;;;;;;;18.13;12.40;;;9.40;99.90;;;;;;5090902;28;20051;-69
2023/12/10 03:31:39;;;;;;;15.13;10.30;;;9.50;99.90;;;;;;5078397;28;20062;-69
2023/12/10 03:34:43;;;;;;;16.67;11.40;;;10.00;99.90;;;;;;5090879;28;20127;-69
2023/12/10 03:37:47;;;;;;;14.93;11.93;;;11.70;99.90;;;;;;5090841;28;20052;-69
2023/12/10 03:40:51;;;;;;;19.98;12.57;;;;;;;;;;5090582;28;20046;-69
2023/12/10 03:43:56;;;;;;;19.35;12.75;;;;;;;;;;5090925;28;20039;-69
2023/12/10 03:47:01;;;;;;;16.50;11.88;;;;;;;;;;5090698;28;20063;-69
2023/12/10 03:50:06;;;;;;;19.65;12.73;;;;;;;;;;5090871;28;20138;-69
2023/12/10 03:53:10;;;;;;;20.55;12.77;;;;;;;;;;5090620;28;20039;-69
2023/12/10 03:56:14;;;;;;;17.92;12.93;;;;;;;;;;5082286;28;20526;-69
2023/12/10 03:59:18;;;;;;;18.67;13.77;;;;;;;;;;5094890;28;20047;-69
2023/12/10 04:02:22;;;;;;;18.77;13.93;;;;;;;;;;5094867;28;20047;-69
2023/12/10 04:05:27;;;;;;;20.17;15.32;;;;;;;;;;5094609;28;20476;-69
2023/12/10 04:08:31;;;;;;;20.63;14.52;;;;;;;;;;5081954;28;20058;-69
2023/12/10 04:11:36;;;;;;;21.13;14.73;;;10.40;99.90;;;;;;5094613;28;20054;-69
2023/12/10 04:14:40;;;;;;;22.92;15.18;;;;;;;;;;5094212;28;20047;-69
2023/12/10 04:17:45;;;;;;;20.80;12.93;;;;;;;;;;5094053;28;20059;-69
2023/12/10 04:20:49;;;;;;;18.00;9.10;;;;;;;;;;5094470;28;20047;-69
2023/12/10 04:23:54;;;;;;;9.73;4.80;;;;;;;;;;5094272;28;20364;-69
2023/12/10 04:26:58;;;;;;;6.68;2.55;;;;;;;;;;5093967;28;20032;-69
2023/12/10 04:30:02;;;;;;;9.02;2.05;;;;;;;;;;5093954;28;20032;-69
2023/12/10 04:33:07;;;;;;;6.63;2.65;;;;;;;;;;5093886;28;20032;-69
2023/12/10 04:36:12;;;;;;;13.38;8.13;;;11.10;99.90;;;;;;5093701;28;20052;-69
2023/12/10 04:39:16;;;;;;;12.63;10.00;;;;;;;;;;5094055;28;20043;-69
2023/12/10 04:42:20;;;;;;;13.55;9.50;;;;;;;;;;5093985;28;20047;-69
2023/12/10 04:45:24;;;;;;;12.32;9.18;;;;;;;;;;5093769;28;20051;-69
2023/12/10 04:48:29;;;;;;;13.60;9.25;;;;;;;;;;5093437;28;20070;-69
2023/12/10 04:51:33;;;;;;;15.25;10.18;;;;;;;;;;5093475;28;20400;-69
2023/12/10 04:54:38;;;;;;;12.57;9.73;;;;;;;;;;5093272;28;20165;-69
2023/12/10 04:57:42;;;;;;;17.65;12.32;;;;;;;;;;5093445;28;20047;-69
2023/12/10 05:00:47;;;;;;;17.65;12.75;;;;;;;;;;5093350;28;20035;-68
2023/12/10 05:03:51;;;;;;;15.45;11.73;;;;;;;;;;5093372;28;20055;-68
2023/12/10 05:06:55;;;;;;;15.63;11.98;;;;;;;;;;5093427;28;20051;-68
2023/12/10 05:10:00;;;;;;;16.90;11.82;;;;;;;;;;5093627;28;20051;-68
2023/12/10 05:13:04;;;;;;;14.18;10.98;;;;;;;;;;5093521;28;20054;-69
2023/12/10 05:16:08;;;;;;;12.93;11.20;;;;;;;;;;5093062;28;20266;-69
2023/12/10 05:19:12;;;;;;;18.85;12.77;;;;;;;;;;5093357;28;20055;-68
2023/12/10 05:22:17;;;;;;;18.08;12.68;;;;;;;;;;5093026;28;20043;-68
2023/12/10 05:25:21;;;;;;;19.45;12.75;;;;;;;;;;5093148;28;20043;-69
2023/12/10 05:28:25;;;;;;;18.27;13.88;;;;;;;;;;5080553;28;20054;-68
2023/12/10 05:31:30;;;;;;;20.45;14.55;;;;;;;;;;5093216;28;20035;-69
2023/12/10 05:34:34;;;;;;;18.88;15.02;;;;;;;;;;5092552;28;20047;-68
2023/12/10 05:37:38;;;;;;;17.05;13.27;;;;;;;;;;5093040;28;20396;-68
2023/12/10 05:40:43;;;;;;;17.65;13.20;;;9.20;99.90;;;;;;5093427;28;20043;-68
2023/12/10 05:43:47;;;;;;;18.23;13.73;;;10.50;99.90;;;;;;5094749;28;20099;-68
2023/12/10 05:46:51;;;;;;;17.90;12.55;;;9.50;99.90;;;;;;5093603;28;20047;-68
2023/12/10 05:49:56;;;;;;;15.40;12.05;;;;;;;;;;5092839;28;20059;-68
2023/12/10 05:53:03;;;;;;;20.92;12.05;;;;;;;;;;5092685;28;20039;-68
2023/12/10 05:56:08;;;;;;;18.08;12.63;;;;;;;;;;5092483;28;20055;-69
2023/12/10 05:59:14;;;;;;;17.40;13.00;;;;;;;;;;5092185;28;20043;-68
2023/12/10 06:02:19;;;;;;;15.52;12.20;;;;;;;;;;5092563;28;20408;-69
2023/12/10 06:05:23;;;;;;;17.17;12.65;;;;;;;;;;5092458;28;20047;-68
2023/12/10 06:08:28;;;;;;;12.82;10.35;;;;;;;;;;5092230;28;20051;-69
2023/12/10 06:11:32;;;;;;;14.63;9.23;;;;;;;;;;5092332;28;20035;-68
2023/12/10 06:14:37;;;;;;;13.52;9.40;;;;;;;;;;5092153;28;20043;-68
2023/12/10 06:17:41;;;;;;;13.05;9.80;;;;;;;;;;5091155;28;20078;-69
2023/12/10 06:20:48;;;;;;;14.00;9.43;;;;;;;;;;5092193;28;20047;-69
2023/12/10 06:23:53;;;;;;;13.27;8.82;;;;;;;;;;5092082;28;20059;-68
2023/12/10 06:26:57;;;;;;;15.25;10.57;;;;;;;;;;5091744;28;20043;-68
2023/12/10 06:30:01;;;;;;;12.75;10.32;;;;;;;;;;5091798;28;20055;-69
2023/12/10 06:33:06;;;;;;;12.63;10.07;;;11.70;99.90;;;;;;5091455;28;20047;-68
2023/12/10 06:36:10;;;;;;;11.40;9.35;;;;;;;;;;5079070;28;20059;-69
2023/12/10 06:39:16;;;;;;;13.73;9.85;;;;;;;;;;5091845;28;20051;-68
2023/12/10 06:42:20;;;;;;;14.38;9.85;;;;;;;;;;5091679;28;20043;-69
2023/12/10 06:45:25;;;;;;;12.80;9.88;;;;;;;;;;5091217;28;20046;-69
2023/12/10 06:48:29;;;;;;;15.18;11.15;;;;;;;;;;5091666;28;20051;-69
2023/12/10 06:51:34;;;;;;;16.73;11.02;;;;;;;;;;5091520;28;20046;-69
2023/12/10 06:54:40;;;;;;;13.63;10.82;;;;;;;;;;5091402;28;20047;-69
2023/12/10 06:57:44;;;;;;;14.48;10.65;;;;;;;;;;5091495;28;20050;-68
2023/12/10 07:00:48;;;;;;;17.25;11.10;;;;;;;;;;5091279;28;20502;-69
2023/12/10 07:03:55;;;;;;;19.17;12.48;;;;;;;;;;5091212;28;20047;-68
2023/12/10 07:06:59;;;;;;;20.92;11.70;;;;;;;;;;5091433;28;20043;-68
2023/12/10 07:10:03;;;;;;;17.90;11.10;;;;;;;;;;5091157;28;20046;-68
2023/12/10 07:13:08;;;;;;;16.65;10.93;;;;;;;;;;5091372;28;20043;-68
2023/12/10 07:16:12;;;;;;;16.80;10.13;;;;;;;;;;5090851;28;20142;-69
2023/12/10 07:19:17;;;;;;;13.32;8.93;;;;;;;;;;5090933;28;20059;-68
2023/12/10 07:22:21;;;;;;;15.73;7.90;;;;;;;;;;5090924;28;20043;-68
2023/12/10 07:25:26;;;;;;;14.88;7.18;;;;;;;;;;5090668;28;20039;-68
2023/12/10 07:28:30;;;;;;;11.48;6.50;;;;;;;;;;5077681;28;20067;-68
2023/12/10 07:31:34;;;;;;;13.45;6.93;;;;;;;;;;5091166;28;20051;-68
2023/12/10 07:34:38;;;;;;;9.30;4.97;;;;;;;;;;5090379;28;20043;-68
2023/12/10 07:37:43;;;;;;;10.25;5.43;;;;;;;;;;5090629;28;20040;-68
2023/12/10 07:40:47;;;;;;;14.48;6.28;;;;;;;;;;5091018;28;20395;-68
2023/12/10 07:43:51;;;;;;;11.57;5.20;;;;;;;;;;5090414;28;20051;-68
2023/12/10 07:46:56;;;;;;;10.23;5.53;;;;;;;;;;5090627;28;20043;-68
2023/12/10 07:50:00;;;;;;;11.43;5.57;;;;;;;;;;5077969;28;20043;-69
2023/12/10 07:53:05;;;;;;;12.00;6.45;;;;;;;;;;5090751;28;20055;-69
2023/12/10 07:56:09;;;;;;;18.17;12.25;;;;;;;;;;5090374;28;20051;-68
2023/12/10 07:59:14;;;;;;;21.52;15.57;;;;;;;;;;5090845;28;20043;-68
2023/12/10 08:02:18;;;;;;;19.75;14.65;;;;;;;;;;5090555;28;20048;-68
2023/12/10 08:05:22;;;;;;;21.70;14.85;;;;;;;;;;5090353;28;20043;-68
2023/12/10 08:08:26;;;;;;;24.35;15.23;;;;;;;;;;5090423;28;20657;-68
2023/12/10 08:11:31;;;;;;;22.00;14.57;;;12.00;99.90;;;;;;5090638;28;20530;-69
2023/12/10 08:14:36;;;;;;;21.85;15.60;;;;;;;;;;5090265;28;20039;-68
2023/12/10 08:17:41;;;;;;;21.17;15.75;;;;;;;;;;5090129;28;20043;-68
2023/12/10 08:20:46;;;;;;;23.17;14.23;;;;;;;;;;5090548;28;20047;-68
2023/12/10 08:23:50;;;;;;;23.33;14.95;;;;;;;;;;5090611;28;20039;-68
2023/12/10 08:26:54;;;;;;;15.30;10.35;;;;;;;;;;5077942;28;20043;-68
2023/12/10 08:29:58;;;;;;;14.98;11.32;;;;;;;;;;5090465;28;20039;-68
2023/12/10 08:33:03;;;;;;;19.15;12.50;;;;;;;;;;5090330;28;20067;-69
2023/12/10 08:36:07;;;;;;;22.95;13.88;;;;;;;;;;5090032;28;20427;-69
2023/12/10 08:39:11;;;;;;;45.70;35.10;;;;;;;;;;5090732;28;20039;-68
2023/12/10 08:42:15;;;;;;;20.70;14.98;;;;;;;;;;5094097;28;20051;-68
2023/12/10 08:45:20;;;;;;;24.17;15.82;;;;;;;;;;5094259;28;20047;-68
2023/12/10 08:48:24;;;;;;;22.55;15.85;;;;;;;;;;5094125;28;20055;-68
2023/12/10 08:51:29;;;;;;;25.65;17.13;;;;;;;;;;5094169;28;20047;-68
2023/12/10 08:54:33;;;;;;;26.05;17.55;;;;;;;;;;5093832;28;20075;-68
2023/12/10 08:57:37;;;;;;;27.38;17.40;;;;;;;;;;5093853;28;20498;-68
2023/12/10 09:00:42;;;;;;;26.25;16.45;;;;;;;;;;5093859;28;20502;-68
2023/12/10 09:03:46;;;;;;;24.38;15.95;;;;;;;;;;5093951;28;20047;-68
2023/12/10 09:06:51;;;;;;;19.20;13.35;;;;;;;;;;5093665;28;20035;-68
2023/12/10 09:09:59;;;;;;;18.48;13.07;;;;;;;;;;5093890;28;20047;-68
2023/12/10 09:13:03;;;;;;;17.50;12.25;;;;;;;;;;5093863;28;20047;-68
2023/12/10 09:16:08;;;;;;;17.90;11.90;;;;;;;;;;5093556;28;20055;-68
2023/12/10 09:19:12;;;;;;;17.13;9.43;;;;;;;;;;5093705;28;20047;-68
2023/12/10 09:22:17;;;;;;;17.10;9.90;;;;;;;;;;5093674;28;20087;-68
2023/12/10 09:25:21;;;;;;;11.35;8.27;;;;;;;;;;5093605;28;20051;-68
2023/12/10 09:28:25;;;;;;;13.27;6.45;;;;;;;;;;5093463;28;20047;-68
2023/12/10 09:31:29;;;;;;;15.57;6.20;;;;;;;;;;5081067;28;20055;-68
2023/12/10 09:34:34;;;;;;;8.73;5.93;;;;;;;;;;5093035;28;20047;-68
2023/12/10 09:37:38;;;;;;;7.82;5.10;;;;;;;;;;5093482;28;20052;-68
2023/12/10 09:40:42;;;;;;;15.45;8.45;;;;;;;;;;5093330;28;20036;-68
2023/12/10 09:43:47;;;;;;;10.38;6.72;;;;;;;;;;5093230;28;20503;-68
2023/12/10 09:46:51;;;;;;;15.65;7.57;;;;;;;;;;5093286;28;20038;-68
2023/12/10 09:49:58;;;;;;;11.45;4.38;;;14.10;99.90;;;;;;5093175;28;20396;-68
2023/12/10 09:53:02;;;;;;;7.85;5.07;;;;;;;;;;5092096;28;20043;-68
2023/12/10 09:56:07;;;;;;;9.07;4.60;;;;;;;;;;5092954;28;20044;-68
2023/12/10 09:59:12;;;;;;;9.50;4.05;;;;;;;;;;5092925;28;20066;-68
2023/12/10 10:02:17;;;;;;;7.63;4.90;;;;;;;;;;5093016;28;20044;-69
2023/12/10 10:05:21;;;;;;;10.82;6.47;;;;;;;;;;5093113;28;20040;-69
2023/12/10 10:08:26;;;;;;;11.35;5.63;;;;;;;;;;5092803;28;20043;-68
2023/12/10 10:11:30;;;;;;;9.07;5.50;;;;;;;;;;5092918;28;20055;-68
2023/12/10 10:14:34;;;;;;;10.70;5.70;;;;;;;;;;5092447;28;20040;-68
2023/12/10 10:17:38;;;;;;;12.70;5.60;;;;;;;;;;5092290;28;20110;-68
2023/12/10 10:20:43;;;;;;;13.23;5.72;;;;;;;;;;5092414;28;20507;-68
2023/12/10 10:23:48;;;;;;;11.15;6.90;;;;;;;;;;5092490;28;20499;-68
2023/12/10 10:26:54;;;;;;;12.25;7.50;;;;;;;;;;5097318;28;20070;-68
2023/12/10 10:29:59;;;;;;;11.98;6.45;;;;;;;;;;5079799;28;20065;-68
2023/12/10 10:33:04;;;;;;;9.98;5.13;;;;;;;;;;5079819;28;20403;-68
2023/12/10 10:36:08;;;;;;;8.85;4.75;;;;;;;;;;5092000;28;20048;-68
2023/12/10 10:39:12;;;;;;;10.25;5.20;;;;;;;;;;5091995;28;20032;-68
2023/12/10 10:42:18;;;;;;;11.15;6.18;;;;;;;;;;5091966;28;20043;-68
2023/12/10 10:45:22;;;;;;;11.48;5.97;;;;;;;;;;5091795;28;20043;-68
2023/12/10 10:48:27;;;;;;;9.32;5.88;;;16.20;99.90;;;;;;5091713;28;20043;-69
2023/12/10 10:51:35;;;;;;;10.43;5.60;;;;;;;;;;5092014;28;20431;-68
2023/12/10 10:54:40;;;;;;;10.15;6.10;;;;;;;;;;5092055;28;20106;-68
2023/12/10 10:57:44;;;;;;;11.18;5.85;;;;;;;;;;5091622;28;20051;-68
2023/12/10 11:00:48;;;;;;;10.63;6.57;;;;;;;;;;5091895;28;20047;-68
2023/12/10 11:03:53;;;;;;;14.55;6.15;;;;;;;;;;5091401;28;20399;-68
2023/12/10 11:06:58;;;;;;;10.77;5.50;;;;;;;;;;5091844;28;20498;-68
2023/12/10 11:10:03;;;;;;;7.82;5.10;;;;;;;;;;5091399;28;20047;-68
2023/12/10 11:13:08;;;;;;;7.80;5.20;;;;;;;;;;5091305;28;20028;-68
2023/12/10 11:16:13;;;;;;;9.75;5.57;;;;;;;;;;5091151;28;20044;-68
2023/12/10 11:19:19;;;;;;;12.40;6.05;;;15.50;99.90;;;;;;5091285;28;20040;-69
2023/12/10 11:22:23;;;;;;;12.35;5.82;;;;;;;;;;5091197;28;20062;-68
2023/12/10 11:25:28;;;;;;;9.25;5.28;;;;;;;;;;5091395;28;20491;-68
2023/12/10 11:28:32;;;;;;;8.98;4.43;;;;;;;;;;5091219;28;20036;-67
2023/12/10 11:31:37;;;;;;;9.40;4.78;;;;;;;;;;5091378;28;20032;-68
2023/12/10 11:34:43;;;;;;;10.93;5.22;;;;;;;;;;5091086;28;20487;-68
2023/12/10 11:37:47;;;;;;;11.70;5.90;;;;;;;;;;5091421;28;20051;-68
2023/12/10 11:40:52;;;;;;;13.57;6.80;;;;;;;;;;5078472;28;20043;-68
2023/12/10 11:43:56;;;;;;;14.07;7.57;;;;;;;;;;5091230;28;20051;-68
2023/12/10 11:47:05;;;;;;;13.55;7.15;;;;;;;;;;5091223;28;20043;-68
2023/12/10 11:50:09;;;;;;;15.20;6.63;;;;;;;;;;5090573;28;20051;-68
2023/12/10 11:53:16;;;;;;;15.45;7.88;;;;;;;;;;5091126;28;20059;-68
2023/12/10 11:56:21;;;;;;;10.70;6.88;;;;;;;;;;5090825;28;20312;-68
2023/12/10 11:59:25;;;;;;;15.25;7.53;;;;;;;;;;5091226;28;20047;-68
2023/12/10 12:02:30;;;;;;;13.70;5.40;;;;;;;;;;5090838;28;20396;-68
2023/12/10 12:05:34;;;;;;;16.80;7.93;;;;;;;;;;5090923;28;20043;-68
2023/12/10 12:08:39;;;;;;;15.60;6.85;;;;;;;;;;5090740;28;20483;-68
2023/12/10 12:11:43;;;;;;;13.85;5.90;;;;;;;;;;5091051;28;20055;-68
2023/12/10 12:14:47;;;;;;;14.88;6.13;;;;;;;;;;5079385;28;20035;-69
2023/12/10 12:17:51;;;;;;;12.13;4.97;;;;;;;;;;5094589;28;20059;-69
2023/12/10 12:20:56;;;;;;;10.02;5.00;;;;;;;;;;5094965;28;20035;-69
2023/12/10 12:24:00;;;;;;;15.18;8.93;;;;;;;;;;5082442;28;20047;-69
2023/12/10 12:27:05;;;;;;;13.88;8.02;;;;;;;;;;5094602;28;20039;-69
2023/12/10 12:30:10;;;;;;;13.80;8.27;;;;;;;;;;5094724;28;20502;-69
2023/12/10 12:33:16;;;;;;;9.20;5.90;;;;;;;;;;5094401;28;20039;-69
2023/12/10 12:36:20;;;;;;;11.73;6.75;;;;;;;;;;5094155;28;20040;-69
2023/12/10 12:39:24;;;;;;;16.63;7.45;;;;;;;;;;5094412;28;20047;-69
2023/12/10 12:42:28;;;;;;;17.10;7.07;;;;;;;;;;5094451;28;20043;-68
2023/12/10 12:45:33;;;;;;;13.15;6.93;;;;;;;;;;5094291;28;20039;-68
2023/12/10 12:48:37;;;;;;;13.15;7.18;;;;;;;;;;5094059;28;20047;-68
2023/12/10 12:51:41;;;;;;;9.50;5.35;;;;;;;;;;5094362;28;20043;-68
2023/12/10 12:54:46;;;;;;;14.98;4.88;;;;;;;;;;5094209;28;20385;-69
2023/12/10 12:57:50;;;;;;;7.63;5.10;;;;;;;;;;5094192;28;20051;-69
2023/12/10 13:00:55;;;;;;;10.52;4.75;;;15.70;99.90;;;;;;5093978;28;20476;-69
2023/12/10 13:03:59;;;;;;;10.43;4.88;;;;;;;;;;5094083;28;20046;-68
2023/12/10 13:07:04;;;;;;;6.97;3.28;;;;;;;;;;5081405;28;20031;-68
2023/12/10 13:10:09;;;;;;;8.23;3.90;;;;;;;;;;5094113;28;20044;-68
2023/12/10 13:13:13;;;;;;;10.23;4.22;;;;;;;;;;5081396;28;20373;-69
2023/12/10 13:16:18;;;;;;;9.13;4.00;;;;;;;;;;5093698;28;20055;-69
2023/12/10 13:19:22;;;;;;;7.60;4.93;;;;;;;;;;5093938;28;20039;-69
2023/12/10 13:22:26;;;;;;;7.47;4.45;;;;;;;;;;5093880;28;20044;-69
2023/12/10 13:25:31;;;;;;;12.50;4.95;;;;;;;;;;5093364;28;20481;-69
2023/12/10 13:28:35;;;;;;;10.68;5.85;;;;;;;;;;5093590;28;20047;-69
2023/12/10 13:31:39;;;;;;;20.65;12.35;;;;;;;;;;5093735;28;20472;-69
2023/12/10 13:34:43;;;;;;;19.55;10.80;;;;;;;;;;5093115;28;20062;-68
2023/12/10 13:37:47;;;;;;;15.02;5.78;;;;;;;;;;5093226;28;20059;-69
2023/12/10 13:40:52;;;;;;;12.50;4.82;;;;;;;;;;5093405;28;20511;-68
2023/12/10 13:43:56;;;;;;;15.95;8.75;;;;;;;;;;5093270;28;20055;-68
2023/12/10 13:47:00;;;;;;;20.95;10.63;;;;;;;;;;5093260;28;20047;-68
2023/12/10 13:50:06;;;;;;;13.95;6.75;;;;;;;;;;5092948;28;20039;-68
2023/12/10 13:53:10;;;;;;;10.82;5.18;;;;;;;;;;5093004;28;20043;-68
2023/12/10 13:56:15;;;;;;;9.02;4.85;;;;;;;;;;5092593;28;20063;-68
2023/12/10 13:59:19;;;;;;;7.47;4.25;;;;;;;;;;5092979;28;20036;-67
2023/12/10 14:02:29;;;;;;;7.35;3.78;;;;;;;;;;5092979;28;20476;-68
2023/12/10 14:05:33;;;;;;;4.72;3.20;;;;;;;;;;5092606;28;20052;-67
2023/12/10 14:08:39;;;;;;;5.22;2.47;;;;;;;;;;5093042;28;20032;-68
2023/12/10 14:11:44;;;;;;;8.15;3.80;;;;;;;;;;5093001;28;20043;-68
2023/12/10 14:14:50;;;;;;;8.85;5.03;;;;;;;;;;5092776;28;20032;-68
2023/12/10 14:17:54;;;;;;;8.93;3.50;;;;;;;;;;5092180;28;20052;-68
2023/12/10 14:20:58;;;;;;;7.10;4.10;;;;;;;;;;5092622;28;20032;-68
2023/12/10 14:24:04;;;;;;;5.63;3.40;;;;;;;;;;5092046;28;20035;-69
2023/12/10 14:27:08;;;;;;;6.10;3.42;;;;;;;;;;5092404;28;20040;-67
2023/12/10 14:30:12;;;;;;;3.53;2.17;;;;;;;;;;5092088;28;20040;-68
2023/12/10 14:33:16;;;;;;;4.25;2.55;;;;;;;;;;5092123;28;20032;-69
2023/12/10 14:36:20;;;;;;;6.75;2.85;;;;;;;;;;5092036;28;20044;-69
2023/12/10 14:39:26;;;;;;;5.38;2.60;;;;;;;;;;5092046;28;20032;-69
2023/12/10 14:42:30;;;;;;;5.15;2.90;;;;;;;;;;5092042;28;20380;-69
2023/12/10 14:45:34;;;;;;;6.07;3.60;;;;;;;;;;5091875;28;20040;-69
2023/12/10 14:48:38;;;;;;;7.45;4.55;;;;;;;;;;5092145;28;20040;-69
2023/12/10 14:51:43;;;;;;;10.48;5.07;;;;;;;;;;5091731;28;20036;-69
2023/12/10 14:54:47;;;;;;;7.78;4.82;;;;;;;;;;5091709;28;20047;-69
2023/12/10 14:57:51;;;;;;;8.27;3.65;;;;;;;;;;5091603;28;20048;-70
2023/12/10 15:00:56;;;;;;;6.18;3.95;;;;;;;;;;5091673;28;20476;-69
2023/12/10 15:04:00;;;;;;;6.40;3.72;;;;;;;;;;5091731;28;20044;-69
2023/12/10 15:07:05;;;;;;;10.52;4.68;;;;;;;;;;5079152;28;20499;-68
2023/12/10 15:10:12;;;;;;;5.82;3.85;;;14.70;96.60;;;;;;5091616;28;20046;-69
2023/12/10 15:13:17;;;;;;;8.48;5.95;;;;;;;;;;5091687;28;20240;-69
2023/12/10 15:16:23;;;;;;;6.38;4.20;;;;;;;;;;5091329;28;20052;-68
2023/12/10 15:19:27;;;;;;;7.03;4.22;;;;;;;;;;5091489;28;20044;-69
2023/12/10 15:22:31;;;;;;;30.55;16.42;;;;;;;;;;5091182;28;20036;-68
2023/12/10 15:25:36;;;;;;;10.48;5.78;;;;;;;;;;5091165;28;20047;-69
2023/12/10 15:28:40;;;;;;;5.15;3.40;;;;;;;;;;5078853;28;20038;-69
2023/12/10 15:31:45;;;;;;;4.78;2.92;;;;;;;;;;5091189;28;20039;-68
2023/12/10 15:34:50;;;;;;;6.43;4.03;;;;;;;;;;5090935;28;20036;-70
2023/12/10 15:37:54;;;;;;;5.05;3.58;;;;;;;;;;5090993;28;20052;-68
2023/12/10 15:40:58;;;;;;;6.88;4.57;;;;;;;;;;5091224;28;20036;-68
2023/12/10 15:44:03;;;;;;;8.18;3.88;;;;;;;;;;5089683;28;20055;-68
2023/12/10 15:47:07;;;;;;;5.97;4.70;;;;;;;;;;5089171;28;20065;-68
2023/12/10 15:50:11;;;;;;;7.03;4.72;;;;;;;;;;5088514;28;20044;-68
2023/12/10 15:53:17;;;;;;;5.32;3.80;;;;;;;;;;5089440;28;20369;-68
2023/12/10 15:56:21;;;;;;;7.45;4.15;;;;;;;;;;5090192;28;20078;-68
2023/12/10 15:59:25;;;;;;;7.50;3.20;;;;;;;;;;5090751;28;20032;-68
2023/12/10 16:02:30;;;;;;;7.43;3.40;;;;;;;;;;5090691;28;20036;-68
2023/12/10 16:05:35;;;;;;;6.68;4.05;;;;;;;;;;5091020;28;20040;-68
2023/12/10 16:08:40;;;;;;;7.20;3.80;;;;;;;;;;5090688;28;20044;-68
2023/12/10 16:11:44;;;;;;;7.38;5.20;;;;;;;;;;5090842;28;20036;-68
2023/12/10 16:14:49;;;;;;;14.77;8.63;;;;;;;;;;5078334;28;20040;-68
2023/12/10 16:17:53;;;;;;;25.77;15.02;;;;;;;;;;5090430;28;20066;-68
2023/12/10 16:20:57;;;;;;;40.15;21.60;;;;;;;;;;5091000;28;20035;-68
2023/12/10 16:24:02;;;;;;;37.85;20.00;;;;;;;;;;5078125;28;20054;-68
2023/12/10 16:27:06;;;;;;;28.58;16.30;;;;;;;;;;5090891;28;20039;-68
2023/12/10 16:30:11;;;;;;;35.42;17.92;;;;;;;;;;5090863;28;20538;-68
2023/12/10 16:33:15;;;;;;;50.88;20.60;;;;;;;;;;5090543;28;20387;-69
2023/12/10 16:36:20;;;;;;;48.15;22.45;;;;;;;;;;5090560;28;20102;-69
2023/12/10 16:39:24;;;;;;;69.60;33.33;;;;;;;;;;5090398;28;20047;-69
2023/12/10 16:42:28;;;;;;;73.38;34.00;;;;;;;;;;5090603;28;20043;-69
2023/12/10 16:45:33;;;;;;;89.75;43.42;;;;;;;;;;5090574;28;20071;-69
2023/12/10 16:48:37;;;;;;;111.80;52.53;;;;;;;;;;5090582;28;20051;-69
2023/12/10 16:51:42;;;;;;;64.53;31.65;;;;;;;;;;5090713;28;20051;-69
2023/12/10 16:54:46;;;;;;;45.80;25.42;;;;;;;;;;5090599;28;20395;-69
2023/12/10 16:57:51;;;;;;;41.25;21.38;;;;;;;;;;5090093;28;20047;-69
2023/12/10 17:00:55;;;;;;;25.75;13.77;;;;;;;;;;5091369;28;20039;-68
2023/12/10 17:03:59;;;;;;;25.67;18.13;;;;;;;;;;5093948;28;20047;-68
2023/12/10 17:07:04;;;;;;;15.77;11.10;;;;;;;;;;5093888;28;20039;-69
2023/12/10 17:10:09;;;;;;;13.15;8.50;;;;;;;;;;5093983;28;20047;-68
2023/12/10 17:13:14;;;;;;;7.13;4.55;;;;;;;;;;5093811;28;20388;-69
2023/12/10 17:16:18;;;;;;;6.30;3.80;;;;;;;;;;5093911;28;20040;-69
2023/12/10 17:19:22;;;;;;;8.52;4.95;;;;;;;;;;5093585;28;20056;-69
2023/12/10 17:22:26;;;;;;;15.57;10.15;;;;;;;;;;5093438;28;20028;-69
2023/12/10 17:25:31;;;;;;;13.27;10.40;;;;;;;;;;5093305;28;20098;-69
2023/12/10 17:28:35;;;;;;;14.32;9.65;;;;;;;;;;5093474;28;20416;-68
2023/12/10 17:31:40;;;;;;;12.10;8.63;;;;;;;;;;5093338;28;20047;-69
2023/12/10 17:34:44;;;;;;;11.73;8.65;;;;;;;;;;5093393;28;20384;-69